createdAt,value
2018-08-31T00:02:23.141Z,101421.36
2018-08-31T00:05:04.649Z,101419.20
2018-08-31T00:09:48.430Z,101421.38
2018-08-31T00:12:28.014Z,101431.83
2018-08-31T00:14:56.378Z,101432.70
2018-08-31T00:17:24.765Z,101432.72
2018-08-31T00:19:53.149Z,101431.41
2018-08-31T00:22:21.534Z,101439.70
2018-08-31T00:25:00.206Z,101441.01
2018-08-31T00:27:39.876Z,101440.14
2018-08-31T00:30:19.525Z,101446.67
2018-08-31T00:33:11.597Z,101449.30
2018-08-31T00:37:26.270Z,101454.96
2018-08-31T00:42:12.129Z,101450.17
2018-08-31T00:45:15.338Z,101458.89
2018-08-31T00:47:43.730Z,101465.42
2018-08-31T00:50:12.090Z,101459.30
2018-08-31T00:52:40.477Z,101465.84
2018-08-31T00:55:08.838Z,101469.78
2018-08-31T00:57:37.230Z,101468.02
2018-08-31T01:00:05.883Z,101479.81
2018-08-31T01:02:34.254Z,101481.56
2018-08-31T01:05:02.641Z,101479.81
2018-08-31T01:07:31.009Z,101476.32
2018-08-31T01:09:59.398Z,101483.73
2018-08-31T01:12:27.774Z,101482.43
2018-08-31T01:14:56.167Z,101486.36
2018-08-31T01:17:24.543Z,101485.05
2018-08-31T01:19:52.963Z,101480.27
2018-08-31T01:22:21.330Z,101481.58
2018-08-31T01:24:49.857Z,101484.18
2018-08-31T01:27:18.250Z,101482.45
2018-08-31T01:29:46.647Z,101486.81
2018-08-31T01:32:15.045Z,101488.98
2018-08-31T01:34:43.842Z,101493.77
2018-08-31T01:37:12.494Z,101499.01
2018-08-31T01:39:41.042Z,101496.83
2018-08-31T01:42:09.451Z,101499.01
2018-08-31T01:44:37.858Z,101501.63
2018-08-31T01:47:06.411Z,101500.77
2018-08-31T01:49:34.934Z,101502.93
2018-08-31T01:52:03.294Z,101503.81
2018-08-31T01:54:31.688Z,101506.44
2018-08-31T01:57:00.059Z,101501.64
2018-08-31T01:59:28.459Z,101512.52
2018-08-31T02:01:56.866Z,101516.02
2018-08-31T02:04:25.279Z,101511.20
2018-08-31T02:06:53.649Z,101515.57
2018-08-31T02:09:22.694Z,101519.08
2018-08-31T02:11:51.928Z,101519.94
2018-08-31T02:14:20.322Z,101525.62
2018-08-31T02:16:49.463Z,101523.00
2018-08-31T02:19:17.843Z,101523.43
2018-08-31T02:21:46.233Z,101529.97
2018-08-31T02:24:14.609Z,101529.95
2018-08-31T02:26:43.002Z,101524.31
2018-08-31T02:29:11.377Z,101527.78
2018-08-31T02:31:39.766Z,101532.14
2018-08-31T02:34:08.150Z,101533.02
2018-08-31T02:36:36.543Z,101532.58
2018-08-31T02:39:06.255Z,101540.88
2018-08-31T02:41:34.684Z,101529.51
2018-08-31T02:44:03.054Z,101532.14
2018-08-31T02:46:31.447Z,101529.95
2018-08-31T02:48:59.806Z,101533.88
2018-08-31T02:51:28.189Z,101532.59
2018-08-31T02:53:56.554Z,101535.20
2018-08-31T02:56:24.935Z,101531.28
2018-08-31T02:58:53.297Z,101536.07
2018-08-31T03:01:21.684Z,101539.98
2018-08-31T03:03:50.063Z,101535.64
2018-08-31T03:06:18.461Z,101533.44
2018-08-31T03:08:46.834Z,101536.95
2018-08-31T03:11:15.210Z,101537.36
2018-08-31T03:13:43.606Z,101539.11
2018-08-31T03:16:11.987Z,101540.00
2018-08-31T03:18:40.403Z,101539.09
2018-08-31T03:21:08.803Z,101543.48
2018-08-31T03:23:37.193Z,101539.95
2018-08-31T03:26:05.558Z,101542.59
2018-08-31T03:28:33.957Z,101541.72
2018-08-31T03:31:02.339Z,101543.03
2018-08-31T03:33:30.742Z,101542.56
2018-08-31T03:35:59.122Z,101546.94
2018-08-31T03:38:27.522Z,101554.78
2018-08-31T03:40:55.895Z,101549.53
2018-08-31T03:43:25.307Z,101545.17
2018-08-31T03:45:53.688Z,101553.01
2018-08-31T03:48:22.103Z,101551.72
2018-08-31T03:50:50.493Z,101562.16
2018-08-31T03:53:18.917Z,101565.66
2018-08-31T03:55:47.290Z,101566.08
2018-08-31T03:58:15.714Z,101565.21
2018-08-31T04:00:44.159Z,101572.60
2018-08-31T04:03:12.807Z,101559.97
2018-08-31T04:05:41.194Z,101573.48
2018-08-31T04:08:09.589Z,101576.53
2018-08-31T04:10:37.971Z,101576.98
2018-08-31T04:13:06.369Z,101579.13
2018-08-31T04:15:34.741Z,101585.25
2018-08-31T04:18:03.177Z,101588.71
2018-08-31T04:20:31.551Z,101591.75
2018-08-31T04:22:59.945Z,101587.83
2018-08-31T04:25:28.322Z,101588.69
2018-08-31T04:27:56.710Z,101584.73
2018-08-31T04:30:25.154Z,101596.95
2018-08-31T04:32:53.555Z,101594.31
2018-08-31T04:35:21.982Z,101593.91
2018-08-31T04:37:50.374Z,101593.91
2018-08-31T04:40:18.751Z,101596.52
2018-08-31T04:42:47.162Z,101603.05
2018-08-31T04:45:16.707Z,101606.55
2018-08-31T04:47:45.159Z,101601.76
2018-08-31T04:50:13.540Z,101609.58
2018-08-31T04:52:41.915Z,101604.79
2018-08-31T04:55:10.305Z,101609.14
2018-08-31T04:57:38.690Z,101614.39
2018-08-31T05:00:07.095Z,101612.64
2018-08-31T05:02:35.470Z,101616.98
2018-08-31T05:05:03.998Z,101618.28
2018-08-31T05:07:32.361Z,101610.88
2018-08-31T05:10:00.755Z,101615.67
2018-08-31T05:12:29.143Z,101620.47
2018-08-31T05:14:57.536Z,101620.02
2018-08-31T05:17:25.938Z,101621.36
2018-08-31T05:19:54.345Z,101626.16
2018-08-31T05:22:22.827Z,101627.48
2018-08-31T05:24:51.234Z,101633.16
2018-08-31T05:27:19.823Z,101635.80
2018-08-31T05:29:48.223Z,101632.77
2018-08-31T05:32:16.598Z,101633.20
2018-08-31T05:34:45.324Z,101635.40
2018-08-31T05:37:13.386Z,101632.80
2018-08-31T05:39:41.781Z,101632.39
2018-08-31T05:42:10.194Z,101632.82
2018-08-31T05:44:38.588Z,101630.22
2018-08-31T05:47:06.986Z,101634.58
2018-08-31T05:49:35.379Z,101637.63
2018-08-31T05:52:03.779Z,101637.65
2018-08-31T05:54:32.181Z,101639.85
2018-08-31T05:57:00.555Z,101640.28
2018-08-31T05:59:28.948Z,101639.85
2018-08-31T06:01:57.353Z,101644.20
2018-08-31T06:04:25.742Z,101647.28
2018-08-31T06:06:54.114Z,101652.97
2018-08-31T06:09:22.524Z,101650.77
2018-08-31T06:11:50.949Z,101658.66
2018-08-31T06:14:19.319Z,101664.30
2018-08-31T06:16:47.686Z,101661.70
2018-08-31T06:19:16.110Z,101665.63
2018-08-31T06:21:44.491Z,101667.81
2018-08-31T06:24:12.886Z,101669.56
2018-08-31T06:26:41.254Z,101669.99
2018-08-31T06:29:09.649Z,101671.34
2018-08-31T06:31:38.063Z,101669.61
2018-08-31T06:34:06.802Z,101670.07
2018-08-31T06:36:35.231Z,101675.73
2018-08-31T06:39:05.083Z,101684.90
2018-08-31T06:41:33.454Z,101684.47
2018-08-31T06:44:01.885Z,101689.27
2018-08-31T06:46:30.263Z,101691.86
2018-08-31T06:48:58.679Z,101694.92
2018-08-31T06:51:27.096Z,101697.98
2018-08-31T06:53:55.449Z,101702.75
2018-08-31T06:56:23.843Z,101709.32
2018-08-31T06:58:52.214Z,101704.52
2018-08-31T07:01:20.617Z,101707.13
2018-08-31T07:03:49.070Z,101711.52
2018-08-31T07:06:17.407Z,101711.11
2018-08-31T07:08:45.774Z,101711.56
2018-08-31T07:11:14.183Z,101713.75
2018-08-31T07:13:42.565Z,101711.17
2018-08-31T07:16:10.954Z,101712.94
2018-08-31T07:18:40.033Z,101713.42
2018-08-31T07:21:08.447Z,101709.09
2018-08-31T07:23:36.998Z,101705.66
2018-08-31T07:26:05.395Z,101707.93
2018-08-31T07:28:33.794Z,101714.92
2018-08-31T07:31:02.182Z,101715.41
2018-08-31T07:33:30.561Z,101721.10
2018-08-31T07:35:58.969Z,101727.23
2018-08-31T07:38:27.340Z,101730.32
2018-08-31T07:40:55.727Z,101732.06
2018-08-31T07:43:24.135Z,101735.14
2018-08-31T07:45:52.529Z,101736.48
2018-08-31T07:48:20.905Z,101743.08
2018-08-31T07:50:49.298Z,101744.38
2018-08-31T07:53:17.669Z,101747.46
2018-08-31T07:55:46.059Z,101746.63
2018-08-31T07:58:14.429Z,101746.64
2018-08-31T08:00:42.824Z,101745.75
2018-08-31T08:03:11.195Z,101744.03
2018-08-31T08:05:39.627Z,101748.43
2018-08-31T08:08:07.990Z,101748.89
2018-08-31T08:10:36.380Z,101757.64
2018-08-31T08:13:04.750Z,101752.39
2018-08-31T08:15:33.148Z,101754.53
2018-08-31T08:18:01.524Z,101757.16
2018-08-31T08:20:29.946Z,101758.42
2018-08-31T08:22:58.319Z,101754.48
2018-08-31T08:25:26.719Z,101759.25
2018-08-31T08:27:55.084Z,101766.65
2018-08-31T08:30:23.472Z,101764.42
2018-08-31T08:32:51.847Z,101766.98
2018-08-31T08:35:20.248Z,101758.58
2018-08-31T08:37:48.618Z,101762.01
2018-08-31T08:40:17.022Z,101752.75
2018-08-31T08:42:45.445Z,101758.31
2018-08-31T08:45:13.830Z,101758.22
2018-08-31T08:47:42.216Z,101762.52
2018-08-31T08:50:10.738Z,101758.05
2018-08-31T08:52:39.111Z,101764.08
2018-08-31T08:55:07.517Z,101764.00
2018-08-31T08:57:35.908Z,101764.83
2018-08-31T09:00:04.408Z,101766.19
2018-08-31T09:02:32.889Z,101773.67
2018-08-31T09:05:01.259Z,101783.77
2018-08-31T09:07:29.654Z,101776.77
2018-08-31T09:09:58.021Z,101783.77
2018-08-31T09:12:26.418Z,101784.26
2018-08-31T09:14:54.802Z,101788.22
2018-08-31T09:17:23.194Z,101785.23
2018-08-31T09:19:51.600Z,101786.59
2018-08-31T09:22:19.993Z,101786.62
2018-08-31T09:24:48.375Z,101788.39
2018-08-31T09:27:16.770Z,101789.28
2018-08-31T09:29:45.150Z,101784.44
2018-08-31T09:32:18.978Z,101783.53
2018-08-31T09:34:51.675Z,101793.63
2018-08-31T09:37:20.269Z,101787.91
2018-08-31T09:39:49.540Z,101787.80
2018-08-31T09:42:18.054Z,101788.17
2018-08-31T09:44:46.445Z,101790.28
2018-08-31T09:47:15.226Z,101780.15
2018-08-31T09:49:45.420Z,101786.66
2018-08-31T09:52:14.983Z,101787.48
2018-08-31T09:54:43.365Z,101779.48
2018-08-31T09:57:12.123Z,101784.30
2018-08-31T09:59:41.091Z,101787.84
2018-08-31T10:03:14.857Z,101791.39
2018-08-31T10:05:43.225Z,101795.80
2018-08-31T10:08:11.622Z,101795.34
2018-08-31T10:10:40.059Z,101796.20
2018-08-31T10:13:08.458Z,101800.13
2018-08-31T10:15:36.835Z,101794.40
2018-08-31T10:18:05.367Z,101798.81
2018-08-31T10:20:33.750Z,101795.72
2018-08-31T10:23:02.147Z,101793.03
2018-08-31T10:25:30.513Z,101791.62
2018-08-31T10:27:58.934Z,101800.77
2018-08-31T10:30:27.307Z,101801.53
2018-08-31T10:32:55.703Z,101795.65
2018-08-31T10:35:24.069Z,101797.67
2018-08-31T10:37:52.551Z,101800.60
2018-08-31T10:40:20.937Z,101801.30
2018-08-31T10:42:49.473Z,101800.27
2018-08-31T10:45:17.843Z,101798.35
2018-08-31T10:47:46.290Z,101790.30
2018-08-31T10:50:14.666Z,101792.44
2018-08-31T10:52:43.067Z,101797.83
2018-08-31T10:55:11.437Z,101800.93
2018-08-31T10:57:39.839Z,101803.52
2018-08-31T11:00:08.557Z,101799.43
2018-08-31T11:02:36.974Z,101800.63
2018-08-31T11:05:05.351Z,101800.10
2018-08-31T11:07:33.761Z,101801.42
2018-08-31T11:10:02.129Z,101800.16
2018-08-31T11:12:30.578Z,101805.11
2018-08-31T11:14:59.001Z,101810.07
2018-08-31T11:17:27.400Z,101808.87
2018-08-31T11:19:55.833Z,101802.84
2018-08-31T11:22:24.243Z,101809.16
2018-08-31T11:24:52.756Z,101809.73
2018-08-31T11:27:21.159Z,101799.68
2018-08-31T11:29:49.566Z,101811.16
2018-08-31T11:32:17.999Z,101809.80
2018-08-31T11:34:46.383Z,101809.33
2018-08-31T11:37:14.796Z,101805.26
2018-08-31T11:39:43.220Z,101813.06
2018-08-31T11:42:11.700Z,101817.78
2018-08-31T11:44:40.075Z,101815.47
2018-08-31T11:47:08.455Z,101810.02
2018-08-31T11:49:36.866Z,101806.77
2018-08-31T11:52:05.249Z,101810.13
2018-08-31T11:54:33.663Z,101808.26
2018-08-31T11:57:02.040Z,101814.00
2018-08-31T11:59:30.435Z,101809.17
2018-08-31T12:01:59.021Z,101821.81
2018-08-31T12:04:27.383Z,101816.79
2018-08-31T12:06:55.763Z,101818.81
2018-08-31T12:09:24.160Z,101817.74
2018-08-31T12:11:52.551Z,101823.34
2018-08-31T12:14:20.941Z,101811.29
2018-08-31T12:16:49.310Z,101816.45
2018-08-31T12:19:17.726Z,101814.11
2018-08-31T12:21:46.101Z,101818.44
2018-08-31T12:24:14.497Z,101817.40
2018-08-31T12:26:42.866Z,101809.70
2018-08-31T12:29:11.276Z,101813.56
2018-08-31T12:31:39.667Z,101815.28
2018-08-31T12:34:08.055Z,101815.77
2018-08-31T12:36:36.432Z,101818.93
2018-08-31T12:39:07.600Z,101817.64
2018-08-31T12:41:35.994Z,101815.86
2018-08-31T12:44:04.600Z,101815.75
2018-08-31T12:46:32.990Z,101820.98
2018-08-31T12:49:01.389Z,101817.32
2018-08-31T12:51:29.763Z,101822.58
2018-08-31T12:53:58.159Z,101821.20
2018-08-31T12:56:26.526Z,101828.20
2018-08-31T12:58:54.943Z,101827.36
2018-08-31T13:01:23.311Z,101824.72
2018-08-31T13:03:51.702Z,101826.88
2018-08-31T13:06:20.075Z,101821.56
2018-08-31T13:08:48.470Z,101822.36
2018-08-31T13:11:16.843Z,101826.33
2018-08-31T13:13:45.239Z,101822.43
2018-08-31T13:16:13.611Z,101828.96
2018-08-31T13:18:42.032Z,101824.06
2018-08-31T13:21:10.406Z,101823.03
2018-08-31T13:23:38.810Z,101819.88
2018-08-31T13:26:07.191Z,101814.98
2018-08-31T13:28:35.586Z,101819.33
2018-08-31T13:31:03.993Z,101815.38
2018-08-31T13:33:32.383Z,101814.43
2018-08-31T13:36:00.745Z,101819.66
2018-08-31T13:38:29.162Z,101819.64
2018-08-31T13:40:57.537Z,101815.66
2018-08-31T13:43:25.916Z,101821.37
2018-08-31T13:45:54.306Z,101824.02
2018-08-31T13:48:22.679Z,101816.45
2018-08-31T13:50:51.070Z,101823.00
2018-08-31T13:53:19.478Z,101818.55
2018-08-31T13:55:47.909Z,101823.00
2018-08-31T13:58:16.292Z,101826.59
2018-08-31T14:00:44.707Z,101831.88
2018-08-31T14:03:13.081Z,101834.92
2018-08-31T14:05:41.479Z,101834.92
2018-08-31T14:08:09.865Z,101837.17
2018-08-31T14:10:38.255Z,101840.33
2018-08-31T14:13:06.623Z,101846.69
2018-08-31T14:15:35.011Z,101848.10
2018-08-31T14:18:03.397Z,101844.22
2018-08-31T14:20:31.818Z,101850.90
2018-08-31T14:23:00.195Z,101848.30
2018-08-31T14:25:28.592Z,101854.91
2018-08-31T14:27:56.976Z,101850.53
2018-08-31T14:30:25.373Z,101858.08
2018-08-31T14:32:53.791Z,101858.19
2018-08-31T14:35:22.187Z,101854.23
2018-08-31T14:37:50.553Z,101854.85
2018-08-31T14:40:18.949Z,101858.10
2018-08-31T14:42:47.327Z,101858.19
2018-08-31T14:45:15.744Z,101857.81
2018-08-31T14:47:44.154Z,101851.74
2018-08-31T14:50:12.558Z,101856.25
2018-08-31T14:52:40.935Z,101861.16
2018-08-31T14:55:09.347Z,101856.41
2018-08-31T14:57:37.816Z,101861.77
2018-08-31T15:00:06.525Z,101860.98
2018-08-31T15:02:34.898Z,101857.06
2018-08-31T15:05:03.309Z,101858.38
2018-08-31T15:07:31.740Z,101862.34
2018-08-31T15:10:00.133Z,101861.03
2018-08-31T15:12:28.507Z,101860.64
2018-08-31T15:14:56.889Z,101858.52
2018-08-31T15:17:25.257Z,101861.66
2018-08-31T15:19:53.714Z,101861.45
2018-08-31T15:22:22.077Z,101860.22
2018-08-31T15:24:50.485Z,101853.67
2018-08-31T15:27:18.868Z,101854.13
2018-08-31T15:29:47.275Z,101865.11
2018-08-31T15:32:15.659Z,101861.59
2018-08-31T15:34:44.079Z,101858.15
2018-08-31T15:37:12.767Z,101858.69
2018-08-31T15:39:41.149Z,101866.30
2018-08-31T15:42:09.610Z,101868.21
2018-08-31T15:44:38.846Z,101863.91
2018-08-31T15:47:07.282Z,101863.50
2018-08-31T15:49:36.045Z,101868.79
2018-08-31T15:52:04.382Z,101870.98
2018-08-31T15:54:32.801Z,101875.33
2018-08-31T15:57:01.194Z,101877.05
2018-08-31T15:59:29.603Z,101874.86
2018-08-31T16:01:57.995Z,101866.95
2018-08-31T16:04:26.375Z,101870.50
2018-08-31T16:06:54.771Z,101870.05
2018-08-31T16:09:23.245Z,101872.73
2018-08-31T16:11:51.580Z,101877.16
2018-08-31T16:14:19.956Z,101881.64
2018-08-31T16:16:48.423Z,101882.16
2018-08-31T16:19:16.830Z,101885.73
2018-08-31T16:21:45.221Z,101883.66
2018-08-31T16:24:13.585Z,101893.00
2018-08-31T16:26:41.970Z,101895.70
2018-08-31T16:29:10.359Z,101901.50
2018-08-31T16:31:38.774Z,101901.59
2018-08-31T16:34:07.474Z,101908.70
2018-08-31T16:36:35.858Z,101912.72
2018-08-31T16:39:05.205Z,101910.12
2018-08-31T16:41:33.600Z,101913.23
2018-08-31T16:44:01.970Z,101915.88
2018-08-31T16:46:30.385Z,101916.27
2018-08-31T16:48:58.767Z,101910.03
2018-08-31T16:51:27.150Z,101916.02
2018-08-31T16:53:55.509Z,101921.56
2018-08-31T16:56:23.899Z,101923.12
2018-08-31T16:58:52.266Z,101921.63
2018-08-31T17:01:20.659Z,101922.92
2018-08-31T17:03:49.021Z,101921.09
2018-08-31T17:06:17.485Z,101922.34
2018-08-31T17:08:45.862Z,101921.43
2018-08-31T17:11:14.251Z,101919.36
2018-08-31T17:13:42.620Z,101917.33
2018-08-31T17:16:11.006Z,101919.38
2018-08-31T17:18:39.406Z,101922.27
2018-08-31T17:21:07.796Z,101923.44
2018-08-31T17:23:36.167Z,101926.34
2018-08-31T17:26:04.563Z,101932.72
2018-08-31T17:28:38.413Z,101937.77
2018-08-31T17:31:12.129Z,101943.64
2018-08-31T17:33:45.810Z,101938.48
2018-08-31T17:36:19.546Z,101937.25
2018-08-31T17:38:47.928Z,101936.92
2018-08-31T17:41:16.335Z,101933.48
2018-08-31T17:43:44.722Z,101934.42
2018-08-31T17:46:13.147Z,101935.30
2018-08-31T17:48:41.550Z,101945.44
2018-08-31T17:51:09.938Z,101943.27
2018-08-31T17:53:38.366Z,101942.83
2018-08-31T17:56:06.758Z,101948.11
2018-08-31T17:58:35.166Z,101944.63
2018-08-31T18:01:03.565Z,101950.34
2018-08-31T18:03:31.969Z,101953.00
2018-08-31T18:06:00.391Z,101957.81
2018-08-31T18:08:28.799Z,101956.92
2018-08-31T18:10:57.209Z,101958.70
2018-08-31T18:13:25.641Z,101960.39
2018-08-31T18:15:54.188Z,101962.15
2018-08-31T18:18:22.653Z,101967.84
2018-08-31T18:20:51.042Z,101968.24
2018-08-31T18:23:19.457Z,101968.67
2018-08-31T18:25:47.853Z,101964.71
2018-08-31T18:28:16.290Z,101968.63
2018-08-31T18:30:44.689Z,101968.61
2018-08-31T18:33:13.163Z,101971.22
2018-08-31T18:35:41.564Z,101965.94
2018-08-31T18:38:10.059Z,101971.59
2018-08-31T18:40:38.447Z,101968.48
2018-08-31T18:43:06.867Z,101973.27
2018-08-31T18:45:35.267Z,101974.97
2018-08-31T18:48:03.689Z,101975.80
2018-08-31T18:50:32.074Z,101975.78
2018-08-31T18:53:00.473Z,101977.05
2018-08-31T18:55:28.863Z,101984.89
2018-08-31T18:57:57.293Z,101979.14
2018-08-31T19:00:25.675Z,101979.09
2018-08-31T19:02:54.157Z,101979.09
2018-08-31T19:05:22.538Z,101980.78
2018-08-31T19:07:50.937Z,101981.62
2018-08-31T19:10:19.315Z,101985.05
2018-08-31T19:12:47.748Z,101984.98
2018-08-31T19:15:16.141Z,101986.69
2018-08-31T19:17:44.549Z,101981.41
2018-08-31T19:20:13.122Z,101983.55
2018-08-31T19:22:41.530Z,101986.13
2018-08-31T19:25:10.818Z,101986.92
2018-08-31T19:27:39.194Z,101986.44
2018-08-31T19:30:07.980Z,101980.28
2018-08-31T19:32:36.382Z,101988.53
2018-08-31T19:35:04.759Z,101988.91
2018-08-31T19:37:33.183Z,101990.17
2018-08-31T19:40:01.593Z,101989.67
2018-08-31T19:42:30.034Z,101985.69
2018-08-31T19:44:58.433Z,101986.55
2018-08-31T19:47:26.854Z,101995.25
2018-08-31T19:49:55.291Z,101996.94
2018-08-31T19:52:23.679Z,102000.39
2018-08-31T19:54:52.082Z,101997.78
2018-08-31T19:57:20.487Z,102000.81
2018-08-31T19:59:48.904Z,102007.73
2018-08-31T20:02:17.324Z,102009.87
2018-08-31T20:04:45.721Z,102006.80
2018-08-31T20:07:14.527Z,102004.61
2018-08-31T20:09:42.959Z,102006.80
2018-08-31T20:12:11.334Z,102009.38
2018-08-31T20:14:39.749Z,102016.36
2018-08-31T20:17:08.140Z,102015.02
2018-08-31T20:19:36.702Z,102015.86
2018-08-31T20:22:07.823Z,102014.09
2018-08-31T20:24:36.235Z,102015.83
2018-08-31T20:27:04.675Z,102018.42
2018-08-31T20:29:33.086Z,102020.13
2018-08-31T20:32:01.469Z,102025.77
2018-08-31T20:34:29.963Z,102026.17
2018-08-31T20:36:58.341Z,102028.32
2018-08-31T20:39:26.748Z,102032.21
2018-08-31T20:41:55.166Z,102030.91
2018-08-31T20:44:23.566Z,102035.23
2018-08-31T20:46:52.043Z,102038.28
2018-08-31T20:49:20.496Z,102041.34
2018-08-31T20:51:48.909Z,102039.99
2018-08-31T20:54:17.389Z,102043.48
2018-08-31T20:56:45.709Z,102053.91
2018-08-31T20:59:14.359Z,102046.90
2018-08-31T21:01:42.734Z,102052.97
2018-08-31T21:04:11.132Z,102049.88
2018-08-31T21:06:39.506Z,102055.55
2018-08-31T21:09:10.842Z,102051.55
2018-08-31T21:11:39.214Z,102052.35
2018-08-31T21:14:07.726Z,102054.02
2018-08-31T21:16:36.143Z,102046.10
2018-08-31T21:19:04.558Z,102056.05
2018-08-31T21:21:32.957Z,102056.37
2018-08-31T21:24:01.355Z,102062.78
2018-08-31T21:26:29.768Z,102056.60
2018-08-31T21:28:58.174Z,102065.67
2018-08-31T21:31:26.555Z,102070.78
2018-08-31T21:33:54.959Z,102075.95
2018-08-31T21:36:23.386Z,102079.36
2018-08-31T21:38:51.807Z,102080.14
2018-08-31T21:41:20.176Z,102081.84
2018-08-31T21:43:48.696Z,102079.17
2018-08-31T21:46:17.110Z,102081.27
2018-08-31T21:48:45.477Z,102076.42
2018-08-31T21:51:13.881Z,102079.39
2018-08-31T21:53:42.251Z,102085.83
2018-08-31T21:56:10.651Z,102085.34
2018-08-31T21:58:39.024Z,102086.59
2018-08-31T22:01:12.535Z,102081.28
2018-08-31T22:03:40.898Z,102088.19
2018-08-31T22:06:09.295Z,102084.19
2018-08-31T22:08:37.670Z,102080.64
2018-08-31T22:11:06.061Z,102079.69
2018-08-31T22:13:34.422Z,102080.98
2018-08-31T22:16:02.818Z,102080.02
2018-08-31T22:18:31.205Z,102079.50
2018-08-31T22:20:59.658Z,102077.75
2018-08-31T22:23:28.027Z,102084.71
2018-08-31T22:25:56.415Z,102088.16
2018-08-31T22:28:24.778Z,102092.06
2018-08-31T22:30:54.203Z,102090.77
2018-08-31T22:33:22.577Z,102088.20
2018-08-31T22:35:50.971Z,102082.59
2018-08-31T22:38:19.348Z,102080.89
2018-08-31T22:40:47.749Z,102080.50
2018-08-31T22:43:16.119Z,102072.28
2018-08-31T22:45:44.506Z,102084.08
2018-08-31T22:48:12.878Z,102081.05
2018-08-31T22:50:41.285Z,102079.73
2018-08-31T22:53:09.650Z,102079.34
2018-08-31T22:55:38.051Z,102083.70
2018-08-31T22:58:06.418Z,102090.23
2018-08-31T23:00:34.823Z,102081.95
2018-08-31T23:03:03.204Z,102081.47
2018-08-31T23:05:31.610Z,102074.89
2018-08-31T23:08:02.542Z,102079.25
2018-08-31T23:10:31.566Z,102078.77
2018-08-31T23:12:59.942Z,102080.49
2018-08-31T23:15:28.537Z,102079.14
2018-08-31T23:17:56.902Z,102076.02
2018-08-31T23:20:25.332Z,102082.93
2018-08-31T23:22:57.871Z,102081.58
2018-08-31T23:25:31.731Z,102081.52
2018-08-31T23:28:00.107Z,102088.44
2018-08-31T23:30:28.498Z,102084.95
2018-08-31T23:32:56.870Z,102081.42
2018-08-31T23:35:25.258Z,102080.55
2018-08-31T23:37:53.635Z,102077.02
2018-08-31T23:40:22.027Z,102080.05
2018-08-31T23:42:50.387Z,102082.62
2018-08-31T23:45:18.776Z,102076.53
2018-08-31T23:47:47.154Z,102075.61
2018-08-31T23:50:15.542Z,102077.30
2018-08-31T23:52:43.915Z,102080.77
2018-08-31T23:55:12.446Z,102087.25
2018-08-31T23:57:40.819Z,102082.84
